sensor_id;sensor_type;location;lat;lon;timestamp;P1;durP1;ratioP1;P2;durP2;ratioP2
8092;SDS011;4089;52.420;13.334;2023-12-20T00:02:14;28.47;;;7.80;;
8092;SDS011;4089;52.420;13.334;2023-12-20T00:04:41;36.43;;;7.17;;
8092;SDS011;4089;52.420;13.334;2023-12-20T00:07:08;31.50;;;7.83;;
8092;SDS011;4089;52.420;13.334;2023-12-20T00:09:35;32.90;;;8.03;;
8092;SDS011;4089;52.420;13.334;2023-12-20T00:12:02;28.87;;;7.13;;
8092;SDS011;4089;52.420;13.334;2023-12-20T00:14:29;30.07;;;7.33;;
8092;SDS011;4089;52.420;13.334;2023-12-20T00:16:56;31.27;;;7.73;;
8092;SDS011;4089;52.420;13.334;2023-12-20T00:19:23;32.43;;;8.17;;
8092;SDS011;4089;52.420;13.334;2023-12-20T00:21:50;30.43;;;7.83;;
8092;SDS011;4089;52.420;13.334;2023-12-20T00:24:17;29.10;;;7.70;;
8092;SDS011;4089;52.420;13.334;2023-12-20T00:26:44;30.77;;;7.80;;
8092;SDS011;4089;52.420;13.334;2023-12-20T00:29:10;33.00;;;8.43;;
8092;SDS011;4089;52.420;13.334;2023-12-20T00:31:37;30.17;;;7.37;;
8092;SDS011;4089;52.420;13.334;2023-12-20T00:34:05;28.60;;;7.07;;
8092;SDS011;4089;52.420;13.334;2023-12-20T00:36:32;27.43;;;6.13;;
8092;SDS011;4089;52.420;13.334;2023-12-20T00:39:00;28.70;;;6.60;;
8092;SDS011;4089;52.420;13.334;2023-12-20T00:41:27;27.70;;;6.77;;
8092;SDS011;4089;52.420;13.334;2023-12-20T00:43:54;31.77;;;7.87;;
8092;SDS011;4089;52.420;13.334;2023-12-20T00:46:20;28.50;;;7.10;;
8092;SDS011;4089;52.420;13.334;2023-12-20T00:48:47;27.67;;;6.30;;
8092;SDS011;4089;52.420;13.334;2023-12-20T00:51:14;30.17;;;7.47;;
8092;SDS011;4089;52.420;13.334;2023-12-20T00:53:41;29.30;;;6.30;;
8092;SDS011;4089;52.420;13.334;2023-12-20T00:56:08;30.37;;;7.57;;
8092;SDS011;4089;52.420;13.334;2023-12-20T00:58:34;31.80;;;7.77;;
8092;SDS011;4089;52.420;13.334;2023-12-20T01:01:01;30.50;;;6.97;;
8092;SDS011;4089;52.420;13.334;2023-12-20T01:03:28;29.47;;;7.10;;
8092;SDS011;4089;52.420;13.334;2023-12-20T01:05:55;27.80;;;6.60;;
8092;SDS011;4089;52.420;13.334;2023-12-20T01:08:22;27.30;;;6.73;;
8092;SDS011;4089;52.420;13.334;2023-12-20T01:10:49;29.40;;;7.20;;
8092;SDS011;4089;52.420;13.334;2023-12-20T01:13:16;31.80;;;7.20;;
8092;SDS011;4089;52.420;13.334;2023-12-20T01:15:43;28.30;;;7.10;;
8092;SDS011;4089;52.420;13.334;2023-12-20T01:18:10;28.87;;;6.70;;
8092;SDS011;4089;52.420;13.334;2023-12-20T01:20:37;28.30;;;6.50;;
8092;SDS011;4089;52.420;13.334;2023-12-20T01:23:04;26.60;;;6.50;;
8092;SDS011;4089;52.420;13.334;2023-12-20T01:25:31;29.67;;;6.70;;
8092;SDS011;4089;52.420;13.334;2023-12-20T01:27:57;26.30;;;6.03;;
8092;SDS011;4089;52.420;13.334;2023-12-20T01:30:24;27.07;;;5.83;;
8092;SDS011;4089;52.420;13.334;2023-12-20T01:32:51;32.23;;;5.17;;
8092;SDS011;4089;52.420;13.334;2023-12-20T01:35:18;28.90;;;5.60;;
8092;SDS011;4089;52.420;13.334;2023-12-20T01:37:45;28.13;;;5.80;;
8092;SDS011;4089;52.420;13.334;2023-12-20T01:40:12;28.47;;;5.60;;
8092;SDS011;4089;52.420;13.334;2023-12-20T01:42:39;24.80;;;5.10;;
8092;SDS011;4089;52.420;13.334;2023-12-20T01:45:07;28.20;;;5.67;;
8092;SDS011;4089;52.420;13.334;2023-12-20T01:47:34;25.17;;;4.87;;
8092;SDS011;4089;52.420;13.334;2023-12-20T01:50:03;25.33;;;5.00;;
8092;SDS011;4089;52.420;13.334;2023-12-20T01:52:31;26.17;;;5.53;;
8092;SDS011;4089;52.420;13.334;2023-12-20T01:55:00;25.40;;;4.73;;
8092;SDS011;4089;52.420;13.334;2023-12-20T01:57:29;25.50;;;5.23;;
8092;SDS011;4089;52.420;13.334;2023-12-20T01:59:57;25.07;;;4.43;;
8092;SDS011;4089;52.420;13.334;2023-12-20T02:02:25;24.50;;;5.20;;
8092;SDS011;4089;52.420;13.334;2023-12-20T02:04:53;23.47;;;4.40;;
8092;SDS011;4089;52.420;13.334;2023-12-20T02:07:20;23.83;;;4.57;;
8092;SDS011;4089;52.420;13.334;2023-12-20T02:09:48;23.77;;;4.87;;
8092;SDS011;4089;52.420;13.334;2023-12-20T02:12:16;24.67;;;4.93;;
8092;SDS011;4089;52.420;13.334;2023-12-20T02:14:42;25.30;;;5.17;;
8092;SDS011;4089;52.420;13.334;2023-12-20T02:17:09;28.13;;;6.10;;
8092;SDS011;4089;52.420;13.334;2023-12-20T02:19:36;25.20;;;5.33;;
8092;SDS011;4089;52.420;13.334;2023-12-20T02:24:33;30.30;;;5.77;;
8092;SDS011;4089;52.420;13.334;2023-12-20T02:27:00;29.10;;;6.90;;
8092;SDS011;4089;52.420;13.334;2023-12-20T02:29:27;26.50;;;6.70;;
8092;SDS011;4089;52.420;13.334;2023-12-20T02:31:54;26.60;;;6.77;;
8092;SDS011;4089;52.420;13.334;2023-12-20T02:34:21;27.30;;;6.40;;
8092;SDS011;4089;52.420;13.334;2023-12-20T02:36:47;27.50;;;6.40;;
8092;SDS011;4089;52.420;13.334;2023-12-20T02:39:14;26.70;;;6.20;;
8092;SDS011;4089;52.420;13.334;2023-12-20T02:41:41;29.10;;;6.80;;
8092;SDS011;4089;52.420;13.334;2023-12-20T02:44:08;28.97;;;6.23;;
8092;SDS011;4089;52.420;13.334;2023-12-20T02:46:35;30.27;;;8.23;;
8092;SDS011;4089;52.420;13.334;2023-12-20T02:49:02;28.13;;;7.77;;
8092;SDS011;4089;52.420;13.334;2023-12-20T02:51:29;27.83;;;7.90;;
8092;SDS011;4089;52.420;13.334;2023-12-20T02:53:55;30.30;;;7.27;;
8092;SDS011;4089;52.420;13.334;2023-12-20T02:56:22;29.30;;;7.77;;
8092;SDS011;4089;52.420;13.334;2023-12-20T02:58:49;29.40;;;7.87;;
8092;SDS011;4089;52.420;13.334;2023-12-20T03:01:16;29.30;;;8.17;;
8092;SDS011;4089;52.420;13.334;2023-12-20T03:03:43;30.07;;;8.67;;
8092;SDS011;4089;52.420;13.334;2023-12-20T03:06:10;30.10;;;8.70;;
8092;SDS011;4089;52.420;13.334;2023-12-20T03:08:36;30.27;;;8.00;;
8092;SDS011;4089;52.420;13.334;2023-12-20T03:11:04;31.33;;;8.10;;
8092;SDS011;4089;52.420;13.334;2023-12-20T03:13:31;30.23;;;8.73;;
8092;SDS011;4089;52.420;13.334;2023-12-20T03:15:58;32.07;;;8.20;;
8092;SDS011;4089;52.420;13.334;2023-12-20T03:18:25;34.03;;;8.87;;
8092;SDS011;4089;52.420;13.334;2023-12-20T03:20:54;34.83;;;7.50;;
8092;SDS011;4089;52.420;13.334;2023-12-20T03:23:21;31.70;;;8.17;;
8092;SDS011;4089;52.420;13.334;2023-12-20T03:25:47;32.27;;;8.40;;
8092;SDS011;4089;52.420;13.334;2023-12-20T03:28:14;27.37;;;7.40;;
8092;SDS011;4089;52.420;13.334;2023-12-20T03:30:42;28.87;;;7.17;;
8092;SDS011;4089;52.420;13.334;2023-12-20T03:33:09;29.77;;;7.60;;
8092;SDS011;4089;52.420;13.334;2023-12-20T03:35:36;36.73;;;9.23;;
8092;SDS011;4089;52.420;13.334;2023-12-20T03:38:03;30.87;;;7.80;;
8092;SDS011;4089;52.420;13.334;2023-12-20T03:40:30;34.60;;;7.07;;
8092;SDS011;4089;52.420;13.334;2023-12-20T03:42:57;31.17;;;8.50;;
8092;SDS011;4089;52.420;13.334;2023-12-20T03:45:23;34.17;;;8.23;;
8092;SDS011;4089;52.420;13.334;2023-12-20T03:47:50;32.10;;;8.10;;
8092;SDS011;4089;52.420;13.334;2023-12-20T03:50:24;34.87;;;9.20;;
8092;SDS011;4089;52.420;13.334;2023-12-20T03:52:52;34.40;;;9.03;;
8092;SDS011;4089;52.420;13.334;2023-12-20T03:55:19;35.00;;;7.43;;
8092;SDS011;4089;52.420;13.334;2023-12-20T03:57:46;32.70;;;8.20;;
8092;SDS011;4089;52.420;13.334;2023-12-20T04:00:13;31.40;;;7.43;;
8092;SDS011;4089;52.420;13.334;2023-12-20T04:02:41;33.00;;;6.63;;
8092;SDS011;4089;52.420;13.334;2023-12-20T04:05:08;30.67;;;7.30;;
8092;SDS011;4089;52.420;13.334;2023-12-20T04:07:36;37.73;;;7.23;;
8092;SDS011;4089;52.420;13.334;2023-12-20T04:10:03;30.83;;;7.13;;
8092;SDS011;4089;52.420;13.334;2023-12-20T04:12:30;30.40;;;7.47;;
8092;SDS011;4089;52.420;13.334;2023-12-20T04:14:57;33.20;;;8.00;;
8092;SDS011;4089;52.420;13.334;2023-12-20T04:17:24;32.00;;;6.80;;
8092;SDS011;4089;52.420;13.334;2023-12-20T04:19:51;32.23;;;6.53;;
8092;SDS011;4089;52.420;13.334;2023-12-20T04:22:18;37.30;;;7.03;;
8092;SDS011;4089;52.420;13.334;2023-12-20T04:24:46;31.10;;;6.03;;
8092;SDS011;4089;52.420;13.334;2023-12-20T04:27:12;33.33;;;6.90;;
8092;SDS011;4089;52.420;13.334;2023-12-20T04:29:39;31.47;;;6.97;;
8092;SDS011;4089;52.420;13.334;2023-12-20T04:32:06;32.63;;;6.13;;
8092;SDS011;4089;52.420;13.334;2023-12-20T04:34:33;31.00;;;5.80;;
8092;SDS011;4089;52.420;13.334;2023-12-20T04:37:00;32.63;;;5.30;;
8092;SDS011;4089;52.420;13.334;2023-12-20T04:39:28;31.07;;;5.80;;
8092;SDS011;4089;52.420;13.334;2023-12-20T04:41:55;31.23;;;5.20;;
8092;SDS011;4089;52.420;13.334;2023-12-20T04:44:21;25.00;;;5.00;;
8092;SDS011;4089;52.420;13.334;2023-12-20T04:46:48;32.37;;;5.30;;
8092;SDS011;4089;52.420;13.334;2023-12-20T04:49:15;28.47;;;4.70;;
8092;SDS011;4089;52.420;13.334;2023-12-20T04:51:42;29.37;;;4.00;;
8092;SDS011;4089;52.420;13.334;2023-12-20T04:54:09;24.43;;;3.70;;
8092;SDS011;4089;52.420;13.334;2023-12-20T04:56:37;33.17;;;4.17;;
8092;SDS011;4089;52.420;13.334;2023-12-20T04:59:04;25.70;;;2.93;;
8092;SDS011;4089;52.420;13.334;2023-12-20T05:01:32;35.33;;;3.50;;
8092;SDS011;4089;52.420;13.334;2023-12-20T05:03:59;25.80;;;3.33;;
8092;SDS011;4089;52.420;13.334;2023-12-20T05:06:26;30.67;;;2.57;;
8092;SDS011;4089;52.420;13.334;2023-12-20T05:08:52;34.47;;;2.60;;
8092;SDS011;4089;52.420;13.334;2023-12-20T05:11:19;28.03;;;3.23;;
8092;SDS011;4089;52.420;13.334;2023-12-20T05:13:46;30.00;;;2.47;;
8092;SDS011;4089;52.420;13.334;2023-12-20T05:16:16;30.00;;;2.57;;
8092;SDS011;4089;52.420;13.334;2023-12-20T05:18:45;31.80;;;2.93;;
8092;SDS011;4089;52.420;13.334;2023-12-20T05:21:13;28.23;;;3.43;;
8092;SDS011;4089;52.420;13.334;2023-12-20T05:23:40;35.87;;;2.67;;
8092;SDS011;4089;52.420;13.334;2023-12-20T05:26:07;34.70;;;2.70;;
8092;SDS011;4089;52.420;13.334;2023-12-20T05:28:33;31.47;;;2.50;;
8092;SDS011;4089;52.420;13.334;2023-12-20T05:31:00;21.23;;;1.90;;
8092;SDS011;4089;52.420;13.334;2023-12-20T05:33:28;28.40;;;2.73;;
8092;SDS011;4089;52.420;13.334;2023-12-20T05:35:55;29.80;;;2.20;;
8092;SDS011;4089;52.420;13.334;2023-12-20T05:38:21;35.60;;;2.13;;
8092;SDS011;4089;52.420;13.334;2023-12-20T05:40:48;36.30;;;2.30;;
8092;SDS011;4089;52.420;13.334;2023-12-20T05:43:15;31.33;;;2.40;;
8092;SDS011;4089;52.420;13.334;2023-12-20T05:45:42;38.40;;;2.07;;
8092;SDS011;4089;52.420;13.334;2023-12-20T05:48:09;26.37;;;2.07;;
8092;SDS011;4089;52.420;13.334;2023-12-20T05:50:36;31.47;;;2.10;;
8092;SDS011;4089;52.420;13.334;2023-12-20T05:53:03;40.10;;;2.67;;
8092;SDS011;4089;52.420;13.334;2023-12-20T05:55:30;28.83;;;2.43;;
8092;SDS011;4089;52.420;13.334;2023-12-20T05:57:56;52.87;;;2.97;;
8092;SDS011;4089;52.420;13.334;2023-12-20T06:00:23;26.53;;;1.80;;
8092;SDS011;4089;52.420;13.334;2023-12-20T06:02:51;33.20;;;1.93;;
8092;SDS011;4089;52.420;13.334;2023-12-20T06:05:18;24.10;;;2.00;;
8092;SDS011;4089;52.420;13.334;2023-12-20T06:07:45;23.60;;;1.77;;
8092;SDS011;4089;52.420;13.334;2023-12-20T06:10:15;21.97;;;2.10;;
8092;SDS011;4089;52.420;13.334;2023-12-20T06:12:41;26.83;;;2.10;;
8092;SDS011;4089;52.420;13.334;2023-12-20T06:15:08;30.63;;;3.10;;
8092;SDS011;4089;52.420;13.334;2023-12-20T06:17:35;28.37;;;2.97;;
8092;SDS011;4089;52.420;13.334;2023-12-20T06:20:03;25.10;;;1.73;;
8092;SDS011;4089;52.420;13.334;2023-12-20T06:22:34;26.27;;;2.40;;
8092;SDS011;4089;52.420;13.334;2023-12-20T06:25:02;29.80;;;2.40;;
8092;SDS011;4089;52.420;13.334;2023-12-20T06:27:29;24.33;;;2.20;;
8092;SDS011;4089;52.420;13.334;2023-12-20T06:29:56;23.50;;;2.10;;
8092;SDS011;4089;52.420;13.334;2023-12-20T06:32:23;26.87;;;2.23;;
8092;SDS011;4089;52.420;13.334;2023-12-20T06:34:50;37.83;;;2.10;;
8092;SDS011;4089;52.420;13.334;2023-12-20T06:37:17;24.83;;;2.50;;
8092;SDS011;4089;52.420;13.334;2023-12-20T06:39:44;28.00;;;2.23;;
8092;SDS011;4089;52.420;13.334;2023-12-20T06:42:12;23.67;;;2.40;;
8092;SDS011;4089;52.420;13.334;2023-12-20T06:44:39;33.63;;;3.20;;
8092;SDS011;4089;52.420;13.334;2023-12-20T06:47:06;26.20;;;2.30;;
8092;SDS011;4089;52.420;13.334;2023-12-20T06:49:33;24.97;;;2.30;;
8092;SDS011;4089;52.420;13.334;2023-12-20T06:52:00;28.40;;;2.80;;
8092;SDS011;4089;52.420;13.334;2023-12-20T06:54:27;24.40;;;1.93;;
8092;SDS011;4089;52.420;13.334;2023-12-20T06:56:54;25.60;;;2.13;;
8092;SDS011;4089;52.420;13.334;2023-12-20T06:59:21;26.00;;;3.00;;
8092;SDS011;4089;52.420;13.334;2023-12-20T07:01:48;28.60;;;2.90;;
8092;SDS011;4089;52.420;13.334;2023-12-20T07:04:15;24.13;;;2.30;;
8092;SDS011;4089;52.420;13.334;2023-12-20T07:06:49;29.07;;;2.83;;
8092;SDS011;4089;52.420;13.334;2023-12-20T07:09:18;24.73;;;2.70;;
8092;SDS011;4089;52.420;13.334;2023-12-20T07:11:45;27.30;;;2.87;;
8092;SDS011;4089;52.420;13.334;2023-12-20T07:14:12;23.40;;;2.60;;
8092;SDS011;4089;52.420;13.334;2023-12-20T07:16:38;26.90;;;2.23;;
8092;SDS011;4089;52.420;13.334;2023-12-20T07:19:06;24.37;;;2.30;;
8092;SDS011;4089;52.420;13.334;2023-12-20T07:21:33;27.47;;;3.03;;
8092;SDS011;4089;52.420;13.334;2023-12-20T07:24:00;30.40;;;3.13;;
8092;SDS011;4089;52.420;13.334;2023-12-20T07:26:27;31.27;;;2.90;;
8092;SDS011;4089;52.420;13.334;2023-12-20T07:28:54;27.53;;;1.80;;
8092;SDS011;4089;52.420;13.334;2023-12-20T07:31:21;24.10;;;2.10;;
8092;SDS011;4089;52.420;13.334;2023-12-20T07:33:48;27.67;;;1.97;;
8092;SDS011;4089;52.420;13.334;2023-12-20T07:36:15;27.17;;;2.37;;
8092;SDS011;4089;52.420;13.334;2023-12-20T07:38:42;24.53;;;2.10;;
8092;SDS011;4089;52.420;13.334;2023-12-20T07:41:11;42.33;;;2.30;;
8092;SDS011;4089;52.420;13.334;2023-12-20T07:43:38;25.13;;;2.00;;
8092;SDS011;4089;52.420;13.334;2023-12-20T07:46:05;31.03;;;2.17;;
8092;SDS011;4089;52.420;13.334;2023-12-20T07:48:36;24.10;;;1.90;;
8092;SDS011;4089;52.420;13.334;2023-12-20T07:51:03;24.83;;;2.40;;
8092;SDS011;4089;52.420;13.334;2023-12-20T07:53:33;26.47;;;2.20;;
8092;SDS011;4089;52.420;13.334;2023-12-20T07:56:00;20.10;;;1.40;;
8092;SDS011;4089;52.420;13.334;2023-12-20T07:58:27;27.90;;;2.13;;
8092;SDS011;4089;52.420;13.334;2023-12-20T08:01:15;32.40;;;2.30;;
8092;SDS011;4089;52.420;13.334;2023-12-20T08:03:43;24.10;;;2.27;;
8092;SDS011;4089;52.420;13.334;2023-12-20T08:06:10;26.00;;;2.13;;
8092;SDS011;4089;52.420;13.334;2023-12-20T08:08:37;27.10;;;1.73;;
8092;SDS011;4089;52.420;13.334;2023-12-20T08:11:04;25.40;;;2.00;;
8092;SDS011;4089;52.420;13.334;2023-12-20T08:13:31;28.83;;;1.87;;
8092;SDS011;4089;52.420;13.334;2023-12-20T08:15:58;38.33;;;2.13;;
8092;SDS011;4089;52.420;13.334;2023-12-20T08:18:27;29.17;;;2.30;;
8092;SDS011;4089;52.420;13.334;2023-12-20T08:20:54;23.83;;;2.03;;
8092;SDS011;4089;52.420;13.334;2023-12-20T08:23:22;28.13;;;2.47;;
8092;SDS011;4089;52.420;13.334;2023-12-20T08:25:52;31.13;;;1.80;;
8092;SDS011;4089;52.420;13.334;2023-12-20T08:28:19;25.40;;;2.50;;
8092;SDS011;4089;52.420;13.334;2023-12-20T08:30:46;24.83;;;1.70;;
8092;SDS011;4089;52.420;13.334;2023-12-20T08:33:13;32.50;;;1.93;;
8092;SDS011;4089;52.420;13.334;2023-12-20T08:35:40;24.37;;;1.67;;
8092;SDS011;4089;52.420;13.334;2023-12-20T08:38:07;34.40;;;2.23;;
8092;SDS011;4089;52.420;13.334;2023-12-20T08:40:34;26.90;;;1.93;;
8092;SDS011;4089;52.420;13.334;2023-12-20T08:43:00;22.53;;;1.57;;
8092;SDS011;4089;52.420;13.334;2023-12-20T08:45:27;33.13;;;2.00;;
8092;SDS011;4089;52.420;13.334;2023-12-20T08:47:55;30.43;;;2.73;;
8092;SDS011;4089;52.420;13.334;2023-12-20T08:50:24;36.20;;;2.43;;
8092;SDS011;4089;52.420;13.334;2023-12-20T08:52:51;25.73;;;2.30;;
8092;SDS011;4089;52.420;13.334;2023-12-20T08:55:19;28.03;;;1.90;;
8092;SDS011;4089;52.420;13.334;2023-12-20T08:57:48;23.00;;;1.60;;
8092;SDS011;4089;52.420;13.334;2023-12-20T09:00:16;32.97;;;2.03;;
8092;SDS011;4089;52.420;13.334;2023-12-20T09:02:43;33.93;;;2.47;;
8092;SDS011;4089;52.420;13.334;2023-12-20T09:05:09;26.30;;;2.37;;
8092;SDS011;4089;52.420;13.334;2023-12-20T09:07:37;31.30;;;2.20;;
8092;SDS011;4089;52.420;13.334;2023-12-20T09:10:03;24.50;;;2.30;;
8092;SDS011;4089;52.420;13.334;2023-12-20T09:12:31;24.63;;;1.70;;
8092;SDS011;4089;52.420;13.334;2023-12-20T09:14:57;23.83;;;1.60;;
8092;SDS011;4089;52.420;13.334;2023-12-20T09:17:24;25.90;;;1.93;;
8092;SDS011;4089;52.420;13.334;2023-12-20T09:19:52;35.97;;;2.30;;
8092;SDS011;4089;52.420;13.334;2023-12-20T09:22:20;30.97;;;2.00;;
8092;SDS011;4089;52.420;13.334;2023-12-20T09:24:47;21.73;;;1.93;;
8092;SDS011;4089;52.420;13.334;2023-12-20T09:27:14;25.43;;;1.80;;
8092;SDS011;4089;52.420;13.334;2023-12-20T09:29:41;33.13;;;2.50;;
8092;SDS011;4089;52.420;13.334;2023-12-20T09:32:08;25.80;;;3.00;;
8092;SDS011;4089;52.420;13.334;2023-12-20T09:34:35;19.70;;;1.50;;
8092;SDS011;4089;52.420;13.334;2023-12-20T09:37:03;24.87;;;2.10;;
8092;SDS011;4089;52.420;13.334;2023-12-20T09:39:30;30.37;;;2.50;;
8092;SDS011;4089;52.420;13.334;2023-12-20T09:42:01;24.50;;;1.97;;
8092;SDS011;4089;52.420;13.334;2023-12-20T09:44:30;22.70;;;2.00;;
8092;SDS011;4089;52.420;13.334;2023-12-20T09:46:58;31.87;;;2.30;;
8092;SDS011;4089;52.420;13.334;2023-12-20T09:49:27;29.70;;;2.10;;
8092;SDS011;4089;52.420;13.334;2023-12-20T09:51:54;27.80;;;2.17;;
8092;SDS011;4089;52.420;13.334;2023-12-20T09:54:22;25.47;;;2.13;;
8092;SDS011;4089;52.420;13.334;2023-12-20T09:56:50;22.00;;;2.03;;
8092;SDS011;4089;52.420;13.334;2023-12-20T09:59:17;25.33;;;2.17;;
8092;SDS011;4089;52.420;13.334;2023-12-20T10:01:44;22.90;;;1.73;;
8092;SDS011;4089;52.420;13.334;2023-12-20T10:04:12;26.43;;;1.87;;
8092;SDS011;4089;52.420;13.334;2023-12-20T10:06:55;28.57;;;2.90;;
8092;SDS011;4089;52.420;13.334;2023-12-20T10:09:23;23.43;;;2.00;;
8092;SDS011;4089;52.420;13.334;2023-12-20T10:11:50;28.03;;;2.57;;
8092;SDS011;4089;52.420;13.334;2023-12-20T10:14:21;29.20;;;3.07;;
8092;SDS011;4089;52.420;13.334;2023-12-20T10:16:49;30.40;;;3.57;;
8092;SDS011;4089;52.420;13.334;2023-12-20T10:19:16;29.13;;;2.27;;
8092;SDS011;4089;52.420;13.334;2023-12-20T10:21:44;28.47;;;2.53;;
8092;SDS011;4089;52.420;13.334;2023-12-20T10:24:16;36.27;;;2.50;;
8092;SDS011;4089;52.420;13.334;2023-12-20T10:26:43;25.10;;;1.83;;
8092;SDS011;4089;52.420;13.334;2023-12-20T10:29:10;29.20;;;2.30;;
8092;SDS011;4089;52.420;13.334;2023-12-20T10:31:37;25.87;;;2.20;;
8092;SDS011;4089;52.420;13.334;2023-12-20T10:34:09;26.93;;;2.23;;
8092;SDS011;4089;52.420;13.334;2023-12-20T10:36:36;28.40;;;2.27;;
8092;SDS011;4089;52.420;13.334;2023-12-20T10:39:02;28.90;;;2.40;;
8092;SDS011;4089;52.420;13.334;2023-12-20T10:41:33;34.77;;;2.90;;
8092;SDS011;4089;52.420;13.334;2023-12-20T10:44:02;30.07;;;2.50;;
8092;SDS011;4089;52.420;13.334;2023-12-20T10:46:33;30.43;;;2.37;;
8092;SDS011;4089;52.420;13.334;2023-12-20T10:49:04;30.27;;;2.60;;
8092;SDS011;4089;52.420;13.334;2023-12-20T10:51:33;34.97;;;2.20;;
8092;SDS011;4089;52.420;13.334;2023-12-20T10:54:01;28.97;;;2.47;;
8092;SDS011;4089;52.420;13.334;2023-12-20T10:56:29;28.47;;;2.70;;
8092;SDS011;4089;52.420;13.334;2023-12-20T10:58:59;33.70;;;2.43;;
8092;SDS011;4089;52.420;13.334;2023-12-20T11:01:29;29.37;;;3.07;;
8092;SDS011;4089;52.420;13.334;2023-12-20T11:03:56;26.33;;;1.83;;
8092;SDS011;4089;52.420;13.334;2023-12-20T11:06:43;32.60;;;2.23;;
8092;SDS011;4089;52.420;13.334;2023-12-20T11:09:39;28.90;;;2.47;;
8092;SDS011;4089;52.420;13.334;2023-12-20T11:12:15;32.83;;;3.30;;
8092;SDS011;4089;52.420;13.334;2023-12-20T11:14:46;33.73;;;3.40;;
8092;SDS011;4089;52.420;13.334;2023-12-20T11:17:18;31.70;;;2.80;;
8092;SDS011;4089;52.420;13.334;2023-12-20T11:22:22;29.97;;;2.67;;
8092;SDS011;4089;52.420;13.334;2023-12-20T11:24:51;21.27;;;1.90;;
8092;SDS011;4089;52.420;13.334;2023-12-20T11:27:19;24.63;;;1.70;;
8092;SDS011;4089;52.420;13.334;2023-12-20T11:29:53;26.97;;;2.30;;
8092;SDS011;4089;52.420;13.334;2023-12-20T11:34:55;23.13;;;2.00;;
8092;SDS011;4089;52.420;13.334;2023-12-20T11:37:35;32.77;;;2.17;;
8092;SDS011;4089;52.420;13.334;2023-12-20T11:42:33;27.60;;;2.57;;
8092;SDS011;4089;52.420;13.334;2023-12-20T11:45:04;27.70;;;2.53;;
8092;SDS011;4089;52.420;13.334;2023-12-20T11:47:34;28.23;;;2.20;;
8092;SDS011;4089;52.420;13.334;2023-12-20T11:50:02;28.60;;;2.53;;
8092;SDS011;4089;52.420;13.334;2023-12-20T11:52:30;28.93;;;2.70;;
8092;SDS011;4089;52.420;13.334;2023-12-20T11:54:57;26.47;;;2.13;;
8092;SDS011;4089;52.420;13.334;2023-12-20T11:57:24;31.17;;;2.87;;
8092;SDS011;4089;52.420;13.334;2023-12-20T11:59:54;29.33;;;2.70;;
8092;SDS011;4089;52.420;13.334;2023-12-20T12:02:20;25.87;;;2.53;;
8092;SDS011;4089;52.420;13.334;2023-12-20T12:04:51;25.80;;;2.40;;
8092;SDS011;4089;52.420;13.334;2023-12-20T12:07:18;22.83;;;1.73;;
8092;SDS011;4089;52.420;13.334;2023-12-20T12:09:46;22.20;;;1.97;;
8092;SDS011;4089;52.420;13.334;2023-12-20T12:12:13;26.00;;;2.30;;
8092;SDS011;4089;52.420;13.334;2023-12-20T12:14:40;38.63;;;2.60;;
8092;SDS011;4089;52.420;13.334;2023-12-20T12:17:10;33.40;;;2.30;;
8092;SDS011;4089;52.420;13.334;2023-12-20T12:19:41;23.63;;;2.47;;
8092;SDS011;4089;52.420;13.334;2023-12-20T12:22:14;20.33;;;1.80;;
8092;SDS011;4089;52.420;13.334;2023-12-20T12:24:43;22.80;;;1.83;;
8092;SDS011;4089;52.420;13.334;2023-12-20T12:27:16;28.03;;;2.67;;
8092;SDS011;4089;52.420;13.334;2023-12-20T12:29:59;29.33;;;2.13;;
8092;SDS011;4089;52.420;13.334;2023-12-20T12:32:29;25.80;;;2.03;;
8092;SDS011;4089;52.420;13.334;2023-12-20T12:34:56;26.00;;;2.07;;
8092;SDS011;4089;52.420;13.334;2023-12-20T12:37:24;35.53;;;2.30;;
8092;SDS011;4089;52.420;13.334;2023-12-20T12:39:53;27.00;;;3.00;;
8092;SDS011;4089;52.420;13.334;2023-12-20T12:42:21;33.87;;;2.37;;
8092;SDS011;4089;52.420;13.334;2023-12-20T12:44:51;24.80;;;2.40;;
8092;SDS011;4089;52.420;13.334;2023-12-20T12:47:18;23.20;;;2.10;;
8092;SDS011;4089;52.420;13.334;2023-12-20T12:49:45;21.60;;;2.33;;
8092;SDS011;4089;52.420;13.334;2023-12-20T12:52:12;25.60;;;3.30;;
8092;SDS011;4089;52.420;13.334;2023-12-20T12:54:39;23.57;;;2.83;;
8092;SDS011;4089;52.420;13.334;2023-12-20T12:57:06;25.77;;;3.03;;
8092;SDS011;4089;52.420;13.334;2023-12-20T12:59:33;26.10;;;2.67;;
8092;SDS011;4089;52.420;13.334;2023-12-20T13:02:10;23.77;;;2.70;;
8092;SDS011;4089;52.420;13.334;2023-12-20T13:04:37;27.10;;;2.70;;
8092;SDS011;4089;52.420;13.334;2023-12-20T13:07:04;24.50;;;2.30;;
8092;SDS011;4089;52.420;13.334;2023-12-20T13:09:31;28.60;;;3.30;;
8092;SDS011;4089;52.420;13.334;2023-12-20T13:11:58;25.83;;;2.80;;
8092;SDS011;4089;52.420;13.334;2023-12-20T13:14:25;27.73;;;4.20;;
8092;SDS011;4089;52.420;13.334;2023-12-20T13:16:52;26.20;;;2.30;;
8092;SDS011;4089;52.420;13.334;2023-12-20T13:19:19;25.23;;;2.60;;
8092;SDS011;4089;52.420;13.334;2023-12-20T13:21:47;29.43;;;2.63;;
8092;SDS011;4089;52.420;13.334;2023-12-20T13:24:15;26.50;;;3.33;;
8092;SDS011;4089;52.420;13.334;2023-12-20T13:26:41;34.97;;;3.13;;
8092;SDS011;4089;52.420;13.334;2023-12-20T13:29:08;28.57;;;2.90;;
8092;SDS011;4089;52.420;13.334;2023-12-20T13:31:35;26.20;;;3.77;;
8092;SDS011;4089;52.420;13.334;2023-12-20T13:34:03;24.37;;;3.33;;
8092;SDS011;4089;52.420;13.334;2023-12-20T13:36:29;30.53;;;3.03;;
8092;SDS011;4089;52.420;13.334;2023-12-20T13:38:56;26.43;;;3.47;;
8092;SDS011;4089;52.420;13.334;2023-12-20T13:41:23;31.70;;;3.20;;
8092;SDS011;4089;52.420;13.334;2023-12-20T13:43:50;23.27;;;2.80;;
8092;SDS011;4089;52.420;13.334;2023-12-20T13:46:17;21.67;;;1.83;;
8092;SDS011;4089;52.420;13.334;2023-12-20T13:48:46;21.60;;;1.63;;
8092;SDS011;4089;52.420;13.334;2023-12-20T13:53:43;22.60;;;2.13;;
8092;SDS011;4089;52.420;13.334;2023-12-20T13:56:09;20.40;;;1.00;;
8092;SDS011;4089;52.420;13.334;2023-12-20T13:58:36;18.50;;;1.10;;
8092;SDS011;4089;52.420;13.334;2023-12-20T14:01:04;18.37;;;0.83;;
8092;SDS011;4089;52.420;13.334;2023-12-20T14:03:32;20.10;;;1.20;;
8092;SDS011;4089;52.420;13.334;2023-12-20T14:05:58;22.70;;;0.90;;
8092;SDS011;4089;52.420;13.334;2023-12-20T14:08:26;18.60;;;0.80;;
8092;SDS011;4089;52.420;13.334;2023-12-20T14:10:53;18.17;;;0.87;;
8092;SDS011;4089;52.420;13.334;2023-12-20T14:13:20;22.23;;;1.10;;
8092;SDS011;4089;52.420;13.334;2023-12-20T14:15:48;21.57;;;1.30;;
8092;SDS011;4089;52.420;13.334;2023-12-20T14:18:15;18.40;;;1.60;;
8092;SDS011;4089;52.420;13.334;2023-12-20T14:20:43;19.30;;;1.40;;
8092;SDS011;4089;52.420;13.334;2023-12-20T14:23:10;18.40;;;0.87;;
8092;SDS011;4089;52.420;13.334;2023-12-20T14:25:37;20.90;;;1.10;;
8092;SDS011;4089;52.420;13.334;2023-12-20T14:28:16;18.73;;;1.23;;
8092;SDS011;4089;52.420;13.334;2023-12-20T14:30:49;20.23;;;0.93;;
8092;SDS011;4089;52.420;13.334;2023-12-20T14:33:17;18.43;;;1.10;;
8092;SDS011;4089;52.420;13.334;2023-12-20T14:35:46;23.60;;;1.30;;
8092;SDS011;4089;52.420;13.334;2023-12-20T14:38:12;20.90;;;1.20;;
8092;SDS011;4089;52.420;13.334;2023-12-20T14:40:41;19.50;;;1.13;;
8092;SDS011;4089;52.420;13.334;2023-12-20T14:43:08;20.73;;;2.00;;
8092;SDS011;4089;52.420;13.334;2023-12-20T14:45:35;19.03;;;1.50;;
8092;SDS011;4089;52.420;13.334;2023-12-20T14:48:02;22.83;;;1.37;;
8092;SDS011;4089;52.420;13.334;2023-12-20T14:50:29;19.33;;;1.37;;
8092;SDS011;4089;52.420;13.334;2023-12-20T14:52:56;19.77;;;1.50;;
8092;SDS011;4089;52.420;13.334;2023-12-20T14:55:22;29.60;;;1.80;;
8092;SDS011;4089;52.420;13.334;2023-12-20T14:57:49;24.43;;;1.53;;
8092;SDS011;4089;52.420;13.334;2023-12-20T15:00:17;19.27;;;1.53;;
8092;SDS011;4089;52.420;13.334;2023-12-20T15:02:44;20.17;;;4.30;;
8092;SDS011;4089;52.420;13.334;2023-12-20T15:05:11;24.40;;;1.80;;